sensor_id;sensor_type;location;lat;lon;timestamp;P1;durP1;ratioP1;P2;durP2;ratioP2
18125;SDS011;53956;52.442;13.284;2022-08-16T00:01:26;16.92;;;13.57;;
18125;SDS011;53956;52.442;13.284;2022-08-16T00:03:53;15.27;;;12.75;;
18125;SDS011;53956;52.442;13.284;2022-08-16T00:06:20;16.40;;;12.73;;
18125;SDS011;53956;52.442;13.284;2022-08-16T00:08:47;18.55;;;13.43;;
18125;SDS011;53956;52.442;13.284;2022-08-16T00:11:14;15.27;;;13.13;;
18125;SDS011;53956;52.442;13.284;2022-08-16T00:13:43;14.55;;;12.43;;
18125;SDS011;53956;52.442;13.284;2022-08-16T00:16:10;15.07;;;12.68;;
18125;SDS011;53956;52.442;13.284;2022-08-16T00:18:37;17.00;;;13.02;;
18125;SDS011;53956;52.442;13.284;2022-08-16T00:21:04;16.33;;;13.35;;
18125;SDS011;53956;52.442;13.284;2022-08-16T00:23:30;17.58;;;13.32;;
18125;SDS011;53956;52.442;13.284;2022-08-16T00:25:57;15.57;;;12.98;;
18125;SDS011;53956;52.442;13.284;2022-08-16T00:28:24;17.73;;;13.85;;
18125;SDS011;53956;52.442;13.284;2022-08-16T00:30:52;15.23;;;13.18;;
18125;SDS011;53956;52.442;13.284;2022-08-16T00:33:19;16.48;;;13.48;;
18125;SDS011;53956;52.442;13.284;2022-08-16T00:35:46;18.92;;;13.68;;
18125;SDS011;53956;52.442;13.284;2022-08-16T00:38:13;18.08;;;14.23;;
18125;SDS011;53956;52.442;13.284;2022-08-16T00:40:41;17.13;;;13.98;;
18125;SDS011;53956;52.442;13.284;2022-08-16T00:43:10;15.60;;;13.88;;
18125;SDS011;53956;52.442;13.284;2022-08-16T00:45:40;17.05;;;13.43;;
18125;SDS011;53956;52.442;13.284;2022-08-16T00:48:14;15.55;;;13.23;;
18125;SDS011;53956;52.442;13.284;2022-08-16T00:50:42;17.85;;;14.00;;
18125;SDS011;53956;52.442;13.284;2022-08-16T00:53:11;18.88;;;15.27;;
18125;SDS011;53956;52.442;13.284;2022-08-16T00:55:40;17.30;;;14.15;;
18125;SDS011;53956;52.442;13.284;2022-08-16T00:58:11;16.00;;;13.80;;
18125;SDS011;53956;52.442;13.284;2022-08-16T01:00:39;16.58;;;13.25;;
18125;SDS011;53956;52.442;13.284;2022-08-16T01:03:08;15.70;;;13.30;;
18125;SDS011;53956;52.442;13.284;2022-08-16T01:05:38;18.20;;;14.20;;
18125;SDS011;53956;52.442;13.284;2022-08-16T01:08:06;16.77;;;13.80;;
18125;SDS011;53956;52.442;13.284;2022-08-16T01:10:34;16.23;;;13.50;;
18125;SDS011;53956;52.442;13.284;2022-08-16T01:13:02;16.40;;;14.00;;
18125;SDS011;53956;52.442;13.284;2022-08-16T01:15:32;15.15;;;13.48;;
18125;SDS011;53956;52.442;13.284;2022-08-16T01:18:01;21.35;;;14.25;;
18125;SDS011;53956;52.442;13.284;2022-08-16T01:20:29;16.05;;;14.10;;
18125;SDS011;53956;52.442;13.284;2022-08-16T01:23:04;16.25;;;14.55;;
18125;SDS011;53956;52.442;13.284;2022-08-16T01:25:38;18.17;;;14.73;;
18125;SDS011;53956;52.442;13.284;2022-08-16T01:28:10;17.83;;;14.40;;
18125;SDS011;53956;52.442;13.284;2022-08-16T01:30:39;17.27;;;14.05;;
18125;SDS011;53956;52.442;13.284;2022-08-16T01:33:08;18.88;;;15.40;;
18125;SDS011;53956;52.442;13.284;2022-08-16T01:35:37;18.55;;;14.63;;
18125;SDS011;53956;52.442;13.284;2022-08-16T01:38:15;17.48;;;14.80;;
18125;SDS011;53956;52.442;13.284;2022-08-16T01:40:46;16.65;;;14.85;;
18125;SDS011;53956;52.442;13.284;2022-08-16T01:43:14;18.38;;;14.50;;
18125;SDS011;53956;52.442;13.284;2022-08-16T01:45:41;18.08;;;14.55;;
18125;SDS011;53956;52.442;13.284;2022-08-16T01:48:11;20.90;;;15.43;;
18125;SDS011;53956;52.442;13.284;2022-08-16T01:50:39;17.65;;;15.50;;
18125;SDS011;53956;52.442;13.284;2022-08-16T01:53:08;16.70;;;14.93;;
18125;SDS011;53956;52.442;13.284;2022-08-16T01:56:00;16.70;;;13.73;;
18125;SDS011;53956;52.442;13.284;2022-08-16T01:58:29;18.27;;;15.65;;
18125;SDS011;53956;52.442;13.284;2022-08-16T02:00:56;21.15;;;15.50;;
18125;SDS011;53956;52.442;13.284;2022-08-16T02:03:23;18.02;;;15.35;;
18125;SDS011;53956;52.442;13.284;2022-08-16T02:05:51;19.25;;;15.63;;
18125;SDS011;53956;52.442;13.284;2022-08-16T02:08:17;17.58;;;15.32;;
18125;SDS011;53956;52.442;13.284;2022-08-16T02:10:44;19.58;;;15.85;;
18125;SDS011;53956;52.442;13.284;2022-08-16T02:13:13;21.45;;;15.10;;
18125;SDS011;53956;52.442;13.284;2022-08-16T02:15:40;18.08;;;15.25;;
18125;SDS011;53956;52.442;13.284;2022-08-16T02:18:07;20.23;;;15.98;;
18125;SDS011;53956;52.442;13.284;2022-08-16T02:20:35;18.75;;;15.00;;
18125;SDS011;53956;52.442;13.284;2022-08-16T02:23:04;20.38;;;16.48;;
18125;SDS011;53956;52.442;13.284;2022-08-16T02:25:31;23.52;;;15.85;;
18125;SDS011;53956;52.442;13.284;2022-08-16T02:27:59;21.95;;;15.80;;
18125;SDS011;53956;52.442;13.284;2022-08-16T02:30:29;20.73;;;15.77;;
18125;SDS011;53956;52.442;13.284;2022-08-16T02:32:57;18.73;;;15.80;;
18125;SDS011;53956;52.442;13.284;2022-08-16T02:35:24;20.50;;;15.88;;
18125;SDS011;53956;52.442;13.284;2022-08-16T02:37:52;19.75;;;15.23;;
18125;SDS011;53956;52.442;13.284;2022-08-16T02:40:23;18.75;;;15.65;;
18125;SDS011;53956;52.442;13.284;2022-08-16T02:42:50;19.30;;;16.63;;
18125;SDS011;53956;52.442;13.284;2022-08-16T02:45:19;22.45;;;16.55;;
18125;SDS011;53956;52.442;13.284;2022-08-16T02:47:48;21.48;;;16.17;;
18125;SDS011;53956;52.442;13.284;2022-08-16T02:50:15;19.63;;;16.23;;
18125;SDS011;53956;52.442;13.284;2022-08-16T02:52:41;21.02;;;15.65;;
18125;SDS011;53956;52.442;13.284;2022-08-16T02:55:08;21.23;;;16.92;;
18125;SDS011;53956;52.442;13.284;2022-08-16T02:57:36;19.92;;;15.57;;
18125;SDS011;53956;52.442;13.284;2022-08-16T03:00:04;19.35;;;16.00;;
18125;SDS011;53956;52.442;13.284;2022-08-16T03:02:35;21.77;;;15.63;;
18125;SDS011;53956;52.442;13.284;2022-08-16T03:05:08;18.73;;;16.00;;
18125;SDS011;53956;52.442;13.284;2022-08-16T03:07:37;18.55;;;15.65;;
18125;SDS011;53956;52.442;13.284;2022-08-16T03:10:05;19.35;;;15.45;;
18125;SDS011;53956;52.442;13.284;2022-08-16T03:12:36;19.65;;;15.90;;
18125;SDS011;53956;52.442;13.284;2022-08-16T03:15:04;19.92;;;15.05;;
18125;SDS011;53956;52.442;13.284;2022-08-16T03:17:34;19.15;;;16.20;;
18125;SDS011;53956;52.442;13.284;2022-08-16T03:20:03;18.60;;;16.10;;
18125;SDS011;53956;52.442;13.284;2022-08-16T03:22:36;18.98;;;15.80;;
18125;SDS011;53956;52.442;13.284;2022-08-16T03:25:08;20.40;;;17.02;;
18125;SDS011;53956;52.442;13.284;2022-08-16T03:27:38;21.33;;;17.85;;
18125;SDS011;53956;52.442;13.284;2022-08-16T03:30:08;20.35;;;17.23;;
18125;SDS011;53956;52.442;13.284;2022-08-16T03:32:37;19.65;;;16.30;;
18125;SDS011;53956;52.442;13.284;2022-08-16T03:35:04;22.48;;;17.45;;
18125;SDS011;53956;52.442;13.284;2022-08-16T03:37:32;20.17;;;17.10;;
18125;SDS011;53956;52.442;13.284;2022-08-16T03:40:04;20.77;;;16.42;;
18125;SDS011;53956;52.442;13.284;2022-08-16T03:42:32;19.80;;;16.80;;
18125;SDS011;53956;52.442;13.284;2022-08-16T03:44:58;20.48;;;16.48;;
18125;SDS011;53956;52.442;13.284;2022-08-16T03:47:25;21.23;;;16.73;;
18125;SDS011;53956;52.442;13.284;2022-08-16T03:49:53;22.08;;;17.55;;
18125;SDS011;53956;52.442;13.284;2022-08-16T03:52:19;19.27;;;16.95;;
18125;SDS011;53956;52.442;13.284;2022-08-16T03:54:47;21.98;;;17.35;;
18125;SDS011;53956;52.442;13.284;2022-08-16T03:57:15;22.33;;;17.40;;
18125;SDS011;53956;52.442;13.284;2022-08-16T03:59:42;20.10;;;16.58;;
18125;SDS011;53956;52.442;13.284;2022-08-16T04:02:12;21.02;;;17.23;;
18125;SDS011;53956;52.442;13.284;2022-08-16T04:04:39;20.58;;;17.02;;
18125;SDS011;53956;52.442;13.284;2022-08-16T04:07:06;21.60;;;17.17;;
18125;SDS011;53956;52.442;13.284;2022-08-16T04:09:37;19.77;;;16.55;;
18125;SDS011;53956;52.442;13.284;2022-08-16T04:12:07;21.48;;;16.70;;
18125;SDS011;53956;52.442;13.284;2022-08-16T04:14:37;19.90;;;16.98;;
18125;SDS011;53956;52.442;13.284;2022-08-16T04:17:04;26.35;;;16.45;;
18125;SDS011;53956;52.442;13.284;2022-08-16T04:19:34;22.70;;;17.40;;
18125;SDS011;53956;52.442;13.284;2022-08-16T04:22:01;19.92;;;16.92;;
18125;SDS011;53956;52.442;13.284;2022-08-16T04:24:34;20.15;;;16.92;;
18125;SDS011;53956;52.442;13.284;2022-08-16T04:27:01;23.38;;;16.88;;
18125;SDS011;53956;52.442;13.284;2022-08-16T04:29:28;21.13;;;17.00;;
18125;SDS011;53956;52.442;13.284;2022-08-16T04:31:57;22.13;;;17.48;;
18125;SDS011;53956;52.442;13.284;2022-08-16T04:34:31;23.33;;;18.10;;
18125;SDS011;53956;52.442;13.284;2022-08-16T04:37:00;21.50;;;18.25;;
18125;SDS011;53956;52.442;13.284;2022-08-16T04:39:29;23.35;;;17.90;;
18125;SDS011;53956;52.442;13.284;2022-08-16T04:41:57;21.88;;;17.13;;
18125;SDS011;53956;52.442;13.284;2022-08-16T04:44:24;21.08;;;17.73;;
18125;SDS011;53956;52.442;13.284;2022-08-16T04:46:51;24.65;;;18.33;;
18125;SDS011;53956;52.442;13.284;2022-08-16T04:49:21;22.50;;;17.65;;
18125;SDS011;53956;52.442;13.284;2022-08-16T04:51:48;19.08;;;16.50;;
18125;SDS011;53956;52.442;13.284;2022-08-16T04:54:16;19.13;;;16.38;;
18125;SDS011;53956;52.442;13.284;2022-08-16T04:56:43;20.10;;;17.27;;
18125;SDS011;53956;52.442;13.284;2022-08-16T04:59:10;20.67;;;17.50;;
18125;SDS011;53956;52.442;13.284;2022-08-16T05:01:37;21.48;;;17.20;;
18125;SDS011;53956;52.442;13.284;2022-08-16T05:04:04;23.27;;;17.92;;
18125;SDS011;53956;52.442;13.284;2022-08-16T05:06:38;25.00;;;19.85;;
18125;SDS011;53956;52.442;13.284;2022-08-16T05:09:05;25.67;;;19.10;;
18125;SDS011;53956;52.442;13.284;2022-08-16T05:11:32;21.70;;;18.33;;
18125;SDS011;53956;52.442;13.284;2022-08-16T05:14:01;24.02;;;18.55;;
18125;SDS011;53956;52.442;13.284;2022-08-16T05:16:28;24.48;;;19.83;;
18125;SDS011;53956;52.442;13.284;2022-08-16T05:19:03;22.38;;;19.05;;
18125;SDS011;53956;52.442;13.284;2022-08-16T05:21:35;27.08;;;18.67;;
18125;SDS011;53956;52.442;13.284;2022-08-16T05:24:04;24.23;;;19.40;;
18125;SDS011;53956;52.442;13.284;2022-08-16T05:26:32;25.48;;;20.25;;
18125;SDS011;53956;52.442;13.284;2022-08-16T05:29:01;25.90;;;19.90;;
18125;SDS011;53956;52.442;13.284;2022-08-16T05:31:32;24.40;;;18.65;;
18125;SDS011;53956;52.442;13.284;2022-08-16T05:33:59;25.38;;;19.85;;
18125;SDS011;53956;52.442;13.284;2022-08-16T05:36:28;20.80;;;16.73;;
18125;SDS011;53956;52.442;13.284;2022-08-16T05:38:57;19.60;;;16.42;;
18125;SDS011;53956;52.442;13.284;2022-08-16T05:41:26;20.85;;;16.55;;
18125;SDS011;53956;52.442;13.284;2022-08-16T05:43:53;21.70;;;16.85;;
18125;SDS011;53956;52.442;13.284;2022-08-16T05:46:26;21.48;;;17.80;;
18125;SDS011;53956;52.442;13.284;2022-08-16T05:48:53;19.23;;;15.52;;
18125;SDS011;53956;52.442;13.284;2022-08-16T05:51:20;16.90;;;14.85;;
18125;SDS011;53956;52.442;13.284;2022-08-16T05:53:47;17.88;;;14.43;;
18125;SDS011;53956;52.442;13.284;2022-08-16T05:56:14;18.52;;;14.90;;
18125;SDS011;53956;52.442;13.284;2022-08-16T05:58:45;15.80;;;13.93;;
18125;SDS011;53956;52.442;13.284;2022-08-16T06:01:14;15.98;;;13.65;;
18125;SDS011;53956;52.442;13.284;2022-08-16T06:03:44;17.35;;;13.13;;
18125;SDS011;53956;52.442;13.284;2022-08-16T06:06:16;15.85;;;13.35;;
18125;SDS011;53956;52.442;13.284;2022-08-16T06:08:43;13.82;;;12.27;;
18125;SDS011;53956;52.442;13.284;2022-08-16T06:11:11;13.82;;;12.50;;
18125;SDS011;53956;52.442;13.284;2022-08-16T06:13:38;14.32;;;12.93;;
18125;SDS011;53956;52.442;13.284;2022-08-16T06:16:08;14.57;;;12.85;;
18125;SDS011;53956;52.442;13.284;2022-08-16T06:18:38;13.50;;;12.00;;
18125;SDS011;53956;52.442;13.284;2022-08-16T06:21:05;14.13;;;11.85;;
18125;SDS011;53956;52.442;13.284;2022-08-16T06:23:33;15.10;;;12.60;;
18125;SDS011;53956;52.442;13.284;2022-08-16T06:26:05;15.45;;;12.75;;
18125;SDS011;53956;52.442;13.284;2022-08-16T06:28:38;16.48;;;13.90;;
18125;SDS011;53956;52.442;13.284;2022-08-16T06:31:12;13.38;;;11.98;;
18125;SDS011;53956;52.442;13.284;2022-08-16T06:33:44;13.93;;;12.48;;
18125;SDS011;53956;52.442;13.284;2022-08-16T06:36:14;14.65;;;12.10;;
18125;SDS011;53956;52.442;13.284;2022-08-16T06:39:01;12.63;;;11.32;;
18125;SDS011;53956;52.442;13.284;2022-08-16T06:41:50;12.95;;;11.23;;
18125;SDS011;53956;52.442;13.284;2022-08-16T06:44:33;15.90;;;11.90;;
18125;SDS011;53956;52.442;13.284;2022-08-16T06:47:05;13.05;;;10.98;;
18125;SDS011;53956;52.442;13.284;2022-08-16T06:49:31;12.38;;;11.15;;
18125;SDS011;53956;52.442;13.284;2022-08-16T06:52:00;11.77;;;10.57;;
18125;SDS011;53956;52.442;13.284;2022-08-16T06:54:27;11.85;;;10.65;;
18125;SDS011;53956;52.442;13.284;2022-08-16T06:56:53;13.40;;;10.38;;
18125;SDS011;53956;52.442;13.284;2022-08-16T06:59:21;12.88;;;10.80;;
18125;SDS011;53956;52.442;13.284;2022-08-16T07:01:48;14.20;;;12.25;;
18125;SDS011;53956;52.442;13.284;2022-08-16T07:04:17;11.02;;;9.93;;
18125;SDS011;53956;52.442;13.284;2022-08-16T07:06:44;11.60;;;10.40;;
18125;SDS011;53956;52.442;13.284;2022-08-16T07:09:13;12.60;;;10.90;;
18125;SDS011;53956;52.442;13.284;2022-08-16T07:11:43;14.30;;;12.05;;
18125;SDS011;53956;52.442;13.284;2022-08-16T07:14:11;13.02;;;11.73;;
18125;SDS011;53956;52.442;13.284;2022-08-16T07:16:48;14.52;;;12.18;;
18125;SDS011;53956;52.442;13.284;2022-08-16T07:19:14;13.20;;;11.43;;
18125;SDS011;53956;52.442;13.284;2022-08-16T07:21:44;13.32;;;11.82;;
18125;SDS011;53956;52.442;13.284;2022-08-16T07:24:12;14.25;;;12.75;;
18125;SDS011;53956;52.442;13.284;2022-08-16T07:26:42;15.18;;;12.48;;
18125;SDS011;53956;52.442;13.284;2022-08-16T07:29:09;16.27;;;13.57;;
18125;SDS011;53956;52.442;13.284;2022-08-16T07:31:36;19.30;;;14.93;;
18125;SDS011;53956;52.442;13.284;2022-08-16T07:34:07;16.25;;;12.75;;
18125;SDS011;53956;52.442;13.284;2022-08-16T07:36:33;16.23;;;12.25;;
18125;SDS011;53956;52.442;13.284;2022-08-16T07:39:02;17.80;;;12.93;;
18125;SDS011;53956;52.442;13.284;2022-08-16T07:41:33;15.05;;;12.02;;
18125;SDS011;53956;52.442;13.284;2022-08-16T07:44:01;14.57;;;12.60;;
18125;SDS011;53956;52.442;13.284;2022-08-16T07:46:30;15.13;;;13.30;;
18125;SDS011;53956;52.442;13.284;2022-08-16T07:48:58;13.38;;;11.80;;
18125;SDS011;53956;52.442;13.284;2022-08-16T07:51:26;17.88;;;13.90;;
18125;SDS011;53956;52.442;13.284;2022-08-16T07:53:56;15.80;;;14.15;;
18125;SDS011;53956;52.442;13.284;2022-08-16T07:56:24;14.95;;;12.05;;
18125;SDS011;53956;52.442;13.284;2022-08-16T07:58:50;14.45;;;11.75;;
18125;SDS011;53956;52.442;13.284;2022-08-16T08:01:17;15.55;;;10.90;;
18125;SDS011;53956;52.442;13.284;2022-08-16T08:03:51;16.30;;;13.38;;
18125;SDS011;53956;52.442;13.284;2022-08-16T08:06:23;15.27;;;13.40;;
18125;SDS011;53956;52.442;13.284;2022-08-16T08:08:55;16.67;;;13.27;;
18125;SDS011;53956;52.442;13.284;2022-08-16T08:11:24;16.48;;;14.60;;
18125;SDS011;53956;52.442;13.284;2022-08-16T08:13:52;14.88;;;12.63;;
18125;SDS011;53956;52.442;13.284;2022-08-16T08:16:21;15.07;;;12.30;;
18125;SDS011;53956;52.442;13.284;2022-08-16T08:18:48;19.10;;;13.00;;
18125;SDS011;53956;52.442;13.284;2022-08-16T08:21:15;14.65;;;11.95;;
18125;SDS011;53956;52.442;13.284;2022-08-16T08:23:43;14.60;;;11.15;;
18125;SDS011;53956;52.442;13.284;2022-08-16T08:26:11;17.20;;;14.43;;
18125;SDS011;53956;52.442;13.284;2022-08-16T08:28:40;13.15;;;11.75;;
18125;SDS011;53956;52.442;13.284;2022-08-16T08:31:06;13.82;;;11.27;;
18125;SDS011;53956;52.442;13.284;2022-08-16T08:33:36;14.80;;;12.63;;
18125;SDS011;53956;52.442;13.284;2022-08-16T08:36:04;15.27;;;11.25;;
18125;SDS011;53956;52.442;13.284;2022-08-16T08:38:40;15.52;;;12.05;;
18125;SDS011;53956;52.442;13.284;2022-08-16T08:41:09;12.25;;;10.90;;
18125;SDS011;53956;52.442;13.284;2022-08-16T08:43:36;15.73;;;11.50;;
18125;SDS011;53956;52.442;13.284;2022-08-16T08:46:04;14.38;;;11.68;;
18125;SDS011;53956;52.442;13.284;2022-08-16T08:48:31;13.45;;;10.00;;
18125;SDS011;53956;52.442;13.284;2022-08-16T08:50:58;11.45;;;9.52;;
18125;SDS011;53956;52.442;13.284;2022-08-16T08:53:26;12.07;;;10.30;;
18125;SDS011;53956;52.442;13.284;2022-08-16T08:55:53;12.88;;;9.50;;
18125;SDS011;53956;52.442;13.284;2022-08-16T08:58:20;11.23;;;9.75;;
18125;SDS011;53956;52.442;13.284;2022-08-16T09:01:08;14.73;;;10.55;;
18125;SDS011;53956;52.442;13.284;2022-08-16T09:03:36;11.43;;;9.07;;
18125;SDS011;53956;52.442;13.284;2022-08-16T09:06:04;11.80;;;10.45;;
18125;SDS011;53956;52.442;13.284;2022-08-16T09:08:36;12.07;;;10.02;;
18125;SDS011;53956;52.442;13.284;2022-08-16T09:11:05;11.93;;;8.75;;
18125;SDS011;53956;52.442;13.284;2022-08-16T09:13:33;11.48;;;10.35;;
18125;SDS011;53956;52.442;13.284;2022-08-16T09:16:00;13.57;;;11.18;;
18125;SDS011;53956;52.442;13.284;2022-08-16T09:18:29;11.70;;;10.52;;
18125;SDS011;53956;52.442;13.284;2022-08-16T09:20:56;13.40;;;10.60;;
18125;SDS011;53956;52.442;13.284;2022-08-16T09:23:24;11.82;;;10.52;;
18125;SDS011;53956;52.442;13.284;2022-08-16T09:25:52;14.25;;;10.55;;
18125;SDS011;53956;52.442;13.284;2022-08-16T09:28:18;14.30;;;10.60;;
18125;SDS011;53956;52.442;13.284;2022-08-16T09:30:50;11.18;;;9.38;;
18125;SDS011;53956;52.442;13.284;2022-08-16T09:33:17;16.40;;;11.45;;
18125;SDS011;53956;52.442;13.284;2022-08-16T09:35:46;13.45;;;11.05;;
18125;SDS011;53956;52.442;13.284;2022-08-16T09:38:14;11.02;;;8.93;;
18125;SDS011;53956;52.442;13.284;2022-08-16T09:40:41;14.40;;;9.38;;
18125;SDS011;53956;52.442;13.284;2022-08-16T09:43:12;10.38;;;8.80;;
18125;SDS011;53956;52.442;13.284;2022-08-16T09:45:40;11.20;;;9.02;;
18125;SDS011;53956;52.442;13.284;2022-08-16T09:48:07;12.68;;;9.43;;
18125;SDS011;53956;52.442;13.284;2022-08-16T09:50:35;10.50;;;9.40;;
18125;SDS011;53956;52.442;13.284;2022-08-16T09:53:04;13.65;;;10.43;;
18125;SDS011;53956;52.442;13.284;2022-08-16T09:55:33;11.90;;;9.98;;
18125;SDS011;53956;52.442;13.284;2022-08-16T09:58:00;14.85;;;9.40;;
18125;SDS011;53956;52.442;13.284;2022-08-16T10:00:27;13.90;;;10.35;;
18125;SDS011;53956;52.442;13.284;2022-08-16T10:02:54;13.18;;;9.38;;
18125;SDS011;53956;52.442;13.284;2022-08-16T10:05:22;10.55;;;9.20;;
18125;SDS011;53956;52.442;13.284;2022-08-16T10:07:49;10.95;;;9.75;;
18125;SDS011;53956;52.442;13.284;2022-08-16T10:10:18;12.00;;;9.85;;
18125;SDS011;53956;52.442;13.284;2022-08-16T10:12:46;10.98;;;8.80;;
18125;SDS011;53956;52.442;13.284;2022-08-16T10:15:31;9.77;;;8.77;;
18125;SDS011;53956;52.442;13.284;2022-08-16T10:17:58;10.07;;;8.60;;
18125;SDS011;53956;52.442;13.284;2022-08-16T10:20:26;11.85;;;8.15;;
18125;SDS011;53956;52.442;13.284;2022-08-16T10:22:54;13.60;;;8.20;;
18125;SDS011;53956;52.442;13.284;2022-08-16T10:25:22;12.52;;;8.10;;
18125;SDS011;53956;52.442;13.284;2022-08-16T10:27:49;12.55;;;8.98;;
18125;SDS011;53956;52.442;13.284;2022-08-16T10:30:16;12.77;;;8.90;;
18125;SDS011;53956;52.442;13.284;2022-08-16T10:32:43;10.50;;;8.02;;
18125;SDS011;53956;52.442;13.284;2022-08-16T10:35:10;9.98;;;7.70;;
18125;SDS011;53956;52.442;13.284;2022-08-16T10:37:37;10.98;;;8.50;;
18125;SDS011;53956;52.442;13.284;2022-08-16T10:40:04;12.40;;;8.00;;
18125;SDS011;53956;52.442;13.284;2022-08-16T10:42:35;11.63;;;8.70;;
18125;SDS011;53956;52.442;13.284;2022-08-16T10:45:02;11.85;;;8.90;;
18125;SDS011;53956;52.442;13.284;2022-08-16T10:47:29;10.02;;;8.38;;
18125;SDS011;53956;52.442;13.284;2022-08-16T10:49:56;11.52;;;8.43;;
18125;SDS011;53956;52.442;13.284;2022-08-16T10:52:23;13.07;;;9.95;;
18125;SDS011;53956;52.442;13.284;2022-08-16T10:54:50;10.63;;;9.10;;
18125;SDS011;53956;52.442;13.284;2022-08-16T10:57:17;10.23;;;8.35;;
18125;SDS011;53956;52.442;13.284;2022-08-16T10:59:45;13.90;;;9.00;;
18125;SDS011;53956;52.442;13.284;2022-08-16T11:02:12;10.88;;;8.20;;
18125;SDS011;53956;52.442;13.284;2022-08-16T11:04:39;9.20;;;8.10;;
18125;SDS011;53956;52.442;13.284;2022-08-16T11:07:07;13.25;;;7.70;;
18125;SDS011;53956;52.442;13.284;2022-08-16T11:09:35;10.35;;;8.27;;
18125;SDS011;53956;52.442;13.284;2022-08-16T11:12:02;10.85;;;8.40;;
18125;SDS011;53956;52.442;13.284;2022-08-16T11:14:30;10.05;;;7.78;;
18125;SDS011;53956;52.442;13.284;2022-08-16T11:16:58;10.00;;;7.40;;
18125;SDS011;53956;52.442;13.284;2022-08-16T11:19:26;10.50;;;7.78;;
18125;SDS011;53956;52.442;13.284;2022-08-16T11:21:54;10.48;;;7.78;;
18125;SDS011;53956;52.442;13.284;2022-08-16T11:24:21;9.18;;;7.90;;
18125;SDS011;53956;52.442;13.284;2022-08-16T11:26:48;8.35;;;7.35;;
18125;SDS011;53956;52.442;13.284;2022-08-16T11:29:16;10.38;;;7.82;;
18125;SDS011;53956;52.442;13.284;2022-08-16T11:31:43;11.75;;;7.88;;
18125;SDS011;53956;52.442;13.284;2022-08-16T11:34:12;11.52;;;8.00;;
18125;SDS011;53956;52.442;13.284;2022-08-16T11:36:39;9.63;;;7.43;;
18125;SDS011;53956;52.442;13.284;2022-08-16T11:39:06;9.70;;;7.50;;
18125;SDS011;53956;52.442;13.284;2022-08-16T11:41:33;9.50;;;7.60;;
18125;SDS011;53956;52.442;13.284;2022-08-16T11:44:02;7.95;;;6.72;;
18125;SDS011;53956;52.442;13.284;2022-08-16T11:46:29;7.63;;;6.80;;
18125;SDS011;53956;52.442;13.284;2022-08-16T11:48:59;10.93;;;7.95;;
18125;SDS011;53956;52.442;13.284;2022-08-16T11:51:27;10.68;;;7.75;;
18125;SDS011;53956;52.442;13.284;2022-08-16T11:53:54;7.65;;;6.82;;
18125;SDS011;53956;52.442;13.284;2022-08-16T11:56:21;9.57;;;6.47;;
18125;SDS011;53956;52.442;13.284;2022-08-16T11:58:48;8.10;;;7.15;;
18125;SDS011;53956;52.442;13.284;2022-08-16T12:01:16;7.95;;;6.95;;
18125;SDS011;53956;52.442;13.284;2022-08-16T12:03:42;7.35;;;6.65;;
18125;SDS011;53956;52.442;13.284;2022-08-16T12:06:11;7.50;;;6.72;;
18125;SDS011;53956;52.442;13.284;2022-08-16T12:08:42;11.48;;;7.03;;
18125;SDS011;53956;52.442;13.284;2022-08-16T12:11:10;8.43;;;7.05;;
18125;SDS011;53956;52.442;13.284;2022-08-16T12:13:37;8.10;;;7.07;;
18125;SDS011;53956;52.442;13.284;2022-08-16T12:16:06;7.18;;;6.47;;
18125;SDS011;53956;52.442;13.284;2022-08-16T12:18:33;7.72;;;6.57;;
18125;SDS011;53956;52.442;13.284;2022-08-16T12:21:00;9.15;;;6.30;;
18125;SDS011;53956;52.442;13.284;2022-08-16T12:23:27;7.82;;;6.10;;
18125;SDS011;53956;52.442;13.284;2022-08-16T12:25:55;6.85;;;6.03;;
18125;SDS011;53956;52.442;13.284;2022-08-16T12:28:23;9.93;;;6.20;;
18125;SDS011;53956;52.442;13.284;2022-08-16T12:30:50;11.52;;;6.30;;
18125;SDS011;53956;52.442;13.284;2022-08-16T12:33:17;8.75;;;6.70;;
18125;SDS011;53956;52.442;13.284;2022-08-16T12:35:45;9.30;;;6.45;;
18125;SDS011;53956;52.442;13.284;2022-08-16T12:38:14;7.85;;;5.63;;
18125;SDS011;53956;52.442;13.284;2022-08-16T12:40:42;8.98;;;6.28;;
18125;SDS011;53956;52.442;13.284;2022-08-16T12:43:12;8.07;;;5.88;;
18125;SDS011;53956;52.442;13.284;2022-08-16T12:45:39;11.65;;;6.20;;
18125;SDS011;53956;52.442;13.284;2022-08-16T12:48:12;7.47;;;6.40;;
18125;SDS011;53956;52.442;13.284;2022-08-16T12:50:57;6.60;;;5.80;;
18125;SDS011;53956;52.442;13.284;2022-08-16T12:53:24;9.45;;;6.10;;
18125;SDS011;53956;52.442;13.284;2022-08-16T12:55:51;11.32;;;6.32;;
18125;SDS011;53956;52.442;13.284;2022-08-16T12:58:19;7.78;;;6.30;;
18125;SDS011;53956;52.442;13.284;2022-08-16T13:00:46;9.50;;;5.80;;
18125;SDS011;53956;52.442;13.284;2022-08-16T13:03:13;7.40;;;5.95;;
18125;SDS011;53956;52.442;13.284;2022-08-16T13:05:40;9.45;;;6.00;;
18125;SDS011;53956;52.442;13.284;2022-08-16T13:08:07;8.25;;;5.78;;
18125;SDS011;53956;52.442;13.284;2022-08-16T13:10:34;8.63;;;5.95;;
18125;SDS011;53956;52.442;13.284;2022-08-16T13:13:02;9.50;;;6.00;;
18125;SDS011;53956;52.442;13.284;2022-08-16T13:15:32;7.30;;;6.10;;
18125;SDS011;53956;52.442;13.284;2022-08-16T13:17:58;8.32;;;5.80;;
18125;SDS011;53956;52.442;13.284;2022-08-16T13:20:25;10.30;;;6.07;;
18125;SDS011;53956;52.442;13.284;2022-08-16T13:22:57;7.95;;;6.05;;
18125;SDS011;53956;52.442;13.284;2022-08-16T13:25:25;9.65;;;6.05;;
18125;SDS011;53956;52.442;13.284;2022-08-16T13:27:54;11.77;;;5.97;;
18125;SDS011;53956;52.442;13.284;2022-08-16T13:30:21;6.10;;;5.47;;
18125;SDS011;53956;52.442;13.284;2022-08-16T13:32:51;9.45;;;5.80;;
18125;SDS011;53956;52.442;13.284;2022-08-16T13:35:18;8.73;;;5.50;;
18125;SDS011;53956;52.442;13.284;2022-08-16T13:37:46;6.25;;;5.63;;
18125;SDS011;53956;52.442;13.284;2022-08-16T13:40:12;6.38;;;5.50;;
18125;SDS011;53956;52.442;13.284;2022-08-16T13:42:39;6.28;;;5.43;;
18125;SDS011;53956;52.442;13.284;2022-08-16T13:45:08;7.07;;;5.65;;
18125;SDS011;53956;52.442;13.284;2022-08-16T13:47:36;6.22;;;5.43;;
18125;SDS011;53956;52.442;13.284;2022-08-16T13:50:05;5.88;;;5.05;;
18125;SDS011;53956;52.442;13.284;2022-08-16T13:52:33;5.63;;;5.07;;
18125;SDS011;53956;52.442;13.284;2022-08-16T13:55:00;6.43;;;5.18;;
18125;SDS011;53956;52.442;13.284;2022-08-16T13:57:27;6.15;;;5.20;;
18125;SDS011;53956;52.442;13.284;2022-08-16T13:59:53;8.88;;;5.00;;
18125;SDS011;53956;52.442;13.284;2022-08-16T14:02:20;7.00;;;5.35;;
18125;SDS011;53956;52.442;13.284;2022-08-16T14:04:47;7.93;;;5.57;;
18125;SDS011;53956;52.442;13.284;2022-08-16T14:07:15;7.32;;;5.22;;
18125;SDS011;53956;52.442;13.284;2022-08-16T14:09:42;5.68;;;4.78;;
18125;SDS011;53956;52.442;13.284;2022-08-16T14:12:15;7.10;;;5.40;;
18125;SDS011;53956;52.442;13.284;2022-08-16T14:14:45;5.20;;;4.70;;
18125;SDS011;53956;52.442;13.284;2022-08-16T14:17:15;5.57;;;4.68;;
18125;SDS011;53956;52.442;13.284;2022-08-16T14:19:42;6.20;;;4.75;;
18125;SDS011;53956;52.442;13.284;2022-08-16T14:22:08;9.00;;;4.75;;
18125;SDS011;53956;52.442;13.284;2022-08-16T14:24:47;8.50;;;4.47;;